Ktima, Cyprus
Current Conditions -  °F | °C
As of 3:30 AM on Sunday 23 Nov 2014 (Local Time) from LCPH Reporting Station
Broken Clouds Broken Clouds  
Wind Chill: 12°   Ceiling: 5400
Heat Index: 12°   Visibility: 6mi
Dew Point:   Wind: 8mph
Humidity: 72%   Direction: 30°NNE
Pressure: 29.97"   Gusts: NA
Location:  34.76°N, 32.42°E
Report Text: LCPH 230030Z AUTO 03007KT 9999 SCT041 BKN054 12/07 Q1015
Loading
Personal Weather Stations






























Interactive Weather Map New forecast layout! Learn more

10-Day Weather Forecast

Advertisements
Track Severe Weather on mobile